createdAt,value
2018-04-02T00:00:17.031Z,1017.63
2018-04-02T00:01:17.024Z,1017.61
2018-04-02T00:02:17.007Z,1017.62
2018-04-02T00:03:17.002Z,1017.59
2018-04-02T00:04:16.998Z,1017.58
2018-04-02T00:05:17.000Z,1017.55
2018-04-02T00:06:17.035Z,1017.58
2018-04-02T00:07:17.060Z,1017.61
2018-04-02T00:08:17.003Z,1017.58
2018-04-02T00:09:17.001Z,1017.59
2018-04-02T00:10:17.006Z,1017.57
2018-04-02T00:11:16.999Z,1017.58
2018-04-02T00:12:17.024Z,1017.56
2018-04-02T00:13:16.998Z,1017.56
2018-04-02T00:14:17.006Z,1017.57
2018-04-02T00:15:17.008Z,1017.55
2018-04-02T00:16:17.000Z,1017.58
2018-04-02T00:17:17.036Z,1017.58
2018-04-02T00:18:17.000Z,1017.56
2018-04-02T00:19:17.004Z,1017.55
2018-04-02T00:20:17.084Z,1017.55
2018-04-02T00:21:17.035Z,1017.55
2018-04-02T00:22:17.021Z,1017.54
2018-04-02T00:23:17.019Z,1017.55
2018-04-02T00:24:17.012Z,1017.53
2018-04-02T00:25:17.009Z,1017.59
2018-04-02T00:26:17.013Z,1017.57
2018-04-02T00:27:17.005Z,1017.54
2018-04-02T00:28:17.013Z,1017.52
2018-04-02T00:29:17.008Z,1017.55
2018-04-02T00:30:17.033Z,1017.53
2018-04-02T00:31:17.018Z,1017.52
2018-04-02T00:32:17.018Z,1017.53
2018-04-02T00:33:17.024Z,1017.45
2018-04-02T00:34:17.011Z,1017.48
2018-04-02T00:35:17.021Z,1017.46
2018-04-02T00:36:17.013Z,1017.45
2018-04-02T00:37:17.020Z,1017.46
2018-04-02T00:38:17.018Z,1017.41
2018-04-02T00:39:17.015Z,1017.39
2018-04-02T00:40:17.017Z,1017.4
2018-04-02T00:41:17.027Z,1017.39
2018-04-02T00:42:17.044Z,1017.36
2018-04-02T00:43:17.019Z,1017.34
2018-04-02T00:44:17.013Z,1017.36
2018-04-02T00:45:17.023Z,1017.36
2018-04-02T00:46:17.020Z,1017.37
2018-04-02T00:47:17.030Z,1017.39
2018-04-02T00:48:17.036Z,1017.4
2018-04-02T00:49:17.028Z,1017.39
2018-04-02T00:50:17.020Z,1017.42
2018-04-02T00:51:17.123Z,1017.39
2018-04-02T00:52:17.016Z,1017.4
2018-04-02T00:53:17.044Z,1017.4
2018-04-02T00:54:17.014Z,1017.39
2018-04-02T00:55:17.018Z,1017.37
2018-04-02T00:56:17.023Z,1017.39
2018-04-02T00:57:17.024Z,1017.35
2018-04-02T00:58:17.028Z,1017.4
2018-04-02T00:59:17.028Z,1017.36
2018-04-02T01:00:17.019Z,1017.33
2018-04-02T01:01:17.020Z,1017.31
2018-04-02T01:02:17.026Z,1017.32
2018-04-02T01:03:17.048Z,1017.33
2018-04-02T01:04:17.026Z,1017.33
2018-04-02T01:05:17.103Z,1017.32
2018-04-02T01:06:17.022Z,1017.33
2018-04-02T01:07:17.022Z,1017.33
2018-04-02T01:08:17.029Z,1017.32
2018-04-02T01:09:17.032Z,1017.32
2018-04-02T01:10:17.021Z,1017.33
2018-04-02T01:11:17.021Z,1017.34
2018-04-02T01:12:17.080Z,1017.32
2018-04-02T01:13:17.226Z,1017.32
2018-04-02T01:14:17.023Z,1017.29
2018-04-02T01:15:17.025Z,1017.29
2018-04-02T01:16:17.034Z,1017.28
2018-04-02T01:17:17.025Z,1017.27
2018-04-02T01:18:17.066Z,1017.27
2018-04-02T01:19:17.035Z,1017.24
2018-04-02T01:20:17.036Z,1017.23
2018-04-02T01:21:17.058Z,1017.25
2018-04-02T01:22:17.129Z,1017.25
2018-04-02T01:23:17.058Z,1017.23
2018-04-02T01:24:17.041Z,1017.21
2018-04-02T01:25:17.026Z,1017.24
2018-04-02T01:26:17.025Z,1017.19
2018-04-02T01:27:17.024Z,1017.19
2018-04-02T01:28:17.032Z,1017.18
2018-04-02T01:29:17.026Z,1017.17
2018-04-02T01:30:17.072Z,1017.18
2018-04-02T01:31:17.040Z,1017.18
2018-04-02T01:32:17.033Z,1017.16
2018-04-02T01:33:17.029Z,1017.12
2018-04-02T01:34:17.037Z,1017.07
2018-04-02T01:35:17.029Z,1017.08
2018-04-02T01:36:17.028Z,1017.1
2018-04-02T01:37:17.040Z,1017.1
2018-04-02T01:38:17.030Z,1017.03
2018-04-02T01:39:17.045Z,1017.08
2018-04-02T01:40:17.036Z,1017.01
2018-04-02T01:41:17.039Z,1017.01
2018-04-02T01:42:17.044Z,1017.03
2018-04-02T01:43:17.038Z,1017.03
2018-04-02T01:44:17.050Z,1017.05
2018-04-02T01:45:17.038Z,1017
2018-04-02T01:46:17.041Z,1017.03
2018-04-02T01:47:17.039Z,1017.01
2018-04-02T01:48:17.040Z,1017.04
2018-04-02T01:49:17.043Z,1017
2018-04-02T01:50:17.036Z,1017.04
2018-04-02T01:51:17.036Z,1017.01
2018-04-02T01:52:17.035Z,1017.03
2018-04-02T01:53:17.119Z,1016.99
2018-04-02T01:54:17.043Z,1016.98
2018-04-02T01:55:17.044Z,1016.97
2018-04-02T01:56:17.033Z,1016.98
2018-04-02T01:57:17.039Z,1016.97
2018-04-02T01:58:17.041Z,1016.98
2018-04-02T01:59:17.048Z,1016.97
2018-04-02T02:00:17.057Z,1016.94
2018-04-02T02:01:17.048Z,1016.99
2018-04-02T02:02:17.054Z,1016.96
2018-04-02T02:03:17.052Z,1016.96
2018-04-02T02:04:17.044Z,1016.95
2018-04-02T02:05:17.047Z,1016.96
2018-04-02T02:06:17.036Z,1016.88
2018-04-02T02:07:17.052Z,1016.91
2018-04-02T02:08:17.051Z,1016.93
2018-04-02T02:09:17.043Z,1016.9
2018-04-02T02:10:17.046Z,1016.89
2018-04-02T02:11:17.046Z,1016.88
2018-04-02T02:12:17.042Z,1016.83
2018-04-02T02:13:17.048Z,1016.83
2018-04-02T02:14:17.042Z,1016.84
2018-04-02T02:15:17.070Z,1016.87
2018-04-02T02:16:17.051Z,1016.85
2018-04-02T02:17:17.045Z,1016.79
2018-04-02T02:18:17.058Z,1016.78
2018-04-02T02:19:17.047Z,1016.76
2018-04-02T02:20:17.044Z,1016.78
2018-04-02T02:21:17.294Z,1016.82
2018-04-02T02:22:17.066Z,1016.75
2018-04-02T02:23:17.053Z,1016.74
2018-04-02T02:24:17.112Z,1016.74
2018-04-02T02:25:17.047Z,1016.73
2018-04-02T02:26:17.073Z,1016.73
2018-04-02T02:27:17.047Z,1016.76
2018-04-02T02:28:17.051Z,1016.72
2018-04-02T02:29:17.074Z,1016.74
2018-04-02T02:30:17.722Z,1016.73
2018-04-02T02:31:17.075Z,1016.72
2018-04-02T02:32:17.056Z,1016.71
2018-04-02T02:33:17.081Z,1016.71
2018-04-02T02:34:17.062Z,1016.67
2018-04-02T02:35:17.064Z,1016.66
2018-04-02T02:36:17.063Z,1016.68
2018-04-02T02:37:17.056Z,1016.67
2018-04-02T02:38:17.059Z,1016.66
2018-04-02T02:39:17.062Z,1016.68
2018-04-02T02:40:17.062Z,1016.63
2018-04-02T02:41:17.081Z,1016.65
2018-04-02T02:42:17.056Z,1016.59
2018-04-02T02:43:17.086Z,1016.61
2018-04-02T02:44:17.057Z,1016.6
2018-04-02T02:45:17.071Z,1016.58
2018-04-02T02:46:17.118Z,1016.54
2018-04-02T02:47:17.057Z,1016.59
2018-04-02T02:48:17.073Z,1016.57
2018-04-02T02:49:17.076Z,1016.51
2018-04-02T02:50:17.083Z,1016.59
2018-04-02T02:51:17.057Z,1016.53
2018-04-02T02:52:17.057Z,1016.52
2018-04-02T02:53:17.063Z,1016.54
2018-04-02T02:54:17.074Z,1016.56
2018-04-02T02:55:17.154Z,1016.54
2018-04-02T02:56:17.078Z,1016.56
2018-04-02T02:57:17.066Z,1016.5
2018-04-02T02:58:17.058Z,1016.54
2018-04-02T02:59:17.063Z,1016.52
2018-04-02T03:00:17.065Z,1016.54
2018-04-02T03:01:17.067Z,1016.57
2018-04-02T03:02:17.068Z,1016.54
2018-04-02T03:03:17.063Z,1016.52
2018-04-02T03:04:17.071Z,1016.58
2018-04-02T03:05:17.084Z,1016.52
2018-04-02T03:06:17.074Z,1016.45
2018-04-02T03:07:17.081Z,1016.48
2018-04-02T03:08:17.059Z,1016.48
2018-04-02T03:09:17.070Z,1016.47
2018-04-02T03:10:17.061Z,1016.43
2018-04-02T03:11:17.122Z,1016.42
2018-04-02T03:12:17.094Z,1016.42
2018-04-02T03:13:17.057Z,1016.42
2018-04-02T03:14:17.127Z,1016.48
2018-04-02T03:15:17.088Z,1016.41
2018-04-02T03:16:17.066Z,1016.4
2018-04-02T03:17:17.061Z,1016.44
2018-04-02T03:18:17.069Z,1016.44
2018-04-02T03:19:17.065Z,1016.47
2018-04-02T03:20:17.064Z,1016.42
2018-04-02T03:21:17.098Z,1016.45
2018-04-02T03:22:17.067Z,1016.43
2018-04-02T03:23:17.073Z,1016.41
2018-04-02T03:24:17.129Z,1016.39
2018-04-02T03:25:17.064Z,1016.37
2018-04-02T03:26:17.138Z,1016.35
2018-04-02T03:27:17.089Z,1016.38
2018-04-02T03:28:17.076Z,1016.36
2018-04-02T03:29:17.068Z,1016.38
2018-04-02T03:30:17.071Z,1016.39
2018-04-02T03:31:17.084Z,1016.37
2018-04-02T03:32:17.066Z,1016.35
2018-04-02T03:33:17.076Z,1016.39
2018-04-02T03:34:17.076Z,1016.38
2018-04-02T03:35:17.092Z,1016.37
2018-04-02T03:36:17.081Z,1016.33
2018-04-02T03:37:17.075Z,1016.34
2018-04-02T03:38:17.072Z,1016.35
2018-04-02T03:39:17.071Z,1016.36
2018-04-02T03:40:17.073Z,1016.3
2018-04-02T03:41:17.069Z,1016.33
2018-04-02T03:42:17.100Z,1016.28
2018-04-02T03:43:17.083Z,1016.29
2018-04-02T03:44:17.073Z,1016.27
2018-04-02T03:45:17.071Z,1016.27
2018-04-02T03:46:17.076Z,1016.25
2018-04-02T03:47:17.072Z,1016.22
2018-04-02T03:48:17.071Z,1016.22
2018-04-02T03:49:17.073Z,1016.23
2018-04-02T03:50:17.082Z,1016.22
2018-04-02T03:51:17.079Z,1016.23
2018-04-02T03:52:17.072Z,1016.24
2018-04-02T03:53:17.076Z,1016.24
2018-04-02T03:54:17.072Z,1016.22
2018-04-02T03:55:17.071Z,1016.24
2018-04-02T03:56:17.073Z,1016.21
2018-04-02T03:57:17.161Z,1016.2
2018-04-02T03:58:17.081Z,1016.23
2018-04-02T03:59:17.094Z,1016.21
2018-04-02T04:00:17.084Z,1016.22
2018-04-02T04:01:17.083Z,1016.21
2018-04-02T04:02:17.089Z,1016.23
2018-04-02T04:03:17.070Z,1016.23
2018-04-02T04:04:17.082Z,1016.21
2018-04-02T04:05:17.082Z,1016.21
2018-04-02T04:06:17.087Z,1016.22
2018-04-02T04:07:17.107Z,1016.23
2018-04-02T04:08:17.082Z,1016.21
2018-04-02T04:09:17.077Z,1016.23
2018-04-02T04:10:17.080Z,1016.24
2018-04-02T04:11:17.081Z,1016.23
2018-04-02T04:12:17.441Z,1016.23
2018-04-02T04:13:17.098Z,1016.26
2018-04-02T04:14:17.088Z,1016.25
2018-04-02T04:15:17.079Z,1016.21
2018-04-02T04:16:17.087Z,1016.22
2018-04-02T04:17:17.102Z,1016.24
2018-04-02T04:18:17.095Z,1016.25
2018-04-02T04:19:17.083Z,1016.27
2018-04-02T04:20:17.087Z,1016.23
2018-04-02T04:21:17.084Z,1016.26
2018-04-02T04:22:17.079Z,1016.23
2018-04-02T04:23:17.101Z,1016.25
2018-04-02T04:24:17.100Z,1016.28
2018-04-02T04:25:17.079Z,1016.23
2018-04-02T04:26:17.086Z,1016.25
2018-04-02T04:27:17.109Z,1016.24
2018-04-02T04:28:17.234Z,1016.22
2018-04-02T04:29:17.091Z,1016.24
2018-04-02T04:30:17.085Z,1016.19
2018-04-02T04:31:17.080Z,1016.22
2018-04-02T04:32:17.086Z,1016.24
2018-04-02T04:33:17.085Z,1016.18
2018-04-02T04:34:17.096Z,1016.24
2018-04-02T04:35:17.091Z,1016.25
2018-04-02T04:36:17.110Z,1016.23
2018-04-02T04:37:17.085Z,1016.24
2018-04-02T04:38:17.103Z,1016.26
2018-04-02T04:39:17.113Z,1016.26
2018-04-02T04:40:17.172Z,1016.24
2018-04-02T04:41:17.088Z,1016.21
2018-04-02T04:42:17.085Z,1016.26
2018-04-02T04:43:17.083Z,1016.23
2018-04-02T04:44:17.461Z,1016.25
2018-04-02T04:45:17.088Z,1016.27
2018-04-02T04:46:17.087Z,1016.24
2018-04-02T04:47:17.093Z,1016.26
2018-04-02T04:48:17.080Z,1016.3
2018-04-02T04:49:17.168Z,1016.28
2018-04-02T04:50:17.087Z,1016.28
2018-04-02T04:51:17.089Z,1016.28
2018-04-02T04:52:17.101Z,1016.3
2018-04-02T04:53:17.116Z,1016.27
2018-04-02T04:54:17.104Z,1016.26
2018-04-02T04:55:17.424Z,1016.32
2018-04-02T04:56:17.087Z,1016.32
2018-04-02T04:57:17.094Z,1016.33
2018-04-02T04:58:17.104Z,1016.35
2018-04-02T04:59:17.171Z,1016.31
2018-04-02T05:00:17.116Z,1016.33
2018-04-02T05:01:17.089Z,1016.32
2018-04-02T05:02:17.094Z,1016.27
2018-04-02T05:03:17.092Z,1016.31
2018-04-02T05:04:17.110Z,1016.28
2018-04-02T05:05:17.102Z,1016.28
2018-04-02T05:06:17.093Z,1016.26
2018-04-02T05:07:17.093Z,1016.23
2018-04-02T05:08:17.102Z,1016.23
2018-04-02T05:09:17.137Z,1016.21
2018-04-02T05:10:17.129Z,1016.22
2018-04-02T05:11:17.092Z,1016.2
2018-04-02T05:12:17.119Z,1016.23
2018-04-02T05:13:17.097Z,1016.27
2018-04-02T05:14:17.090Z,1016.25
2018-04-02T05:15:17.131Z,1016.23
2018-04-02T05:16:17.112Z,1016.28
2018-04-02T05:17:17.099Z,1016.27
2018-04-02T05:18:17.109Z,1016.23
2018-04-02T05:19:17.093Z,1016.19
2018-04-02T05:20:17.114Z,1016.22
2018-04-02T05:21:17.098Z,1016.18
2018-04-02T05:22:17.106Z,1016.18
2018-04-02T05:23:17.110Z,1016.14
2018-04-02T05:24:17.101Z,1016.22
2018-04-02T05:25:17.134Z,1016.19
2018-04-02T05:26:17.105Z,1016.21
2018-04-02T05:27:17.095Z,1016.2
2018-04-02T05:28:17.094Z,1016.24
2018-04-02T05:29:17.100Z,1016.21
2018-04-02T05:30:17.264Z,1016.21
2018-04-02T05:31:17.101Z,1016.17
2018-04-02T05:32:17.108Z,1016.18
2018-04-02T05:33:17.109Z,1016.18
2018-04-02T05:34:17.107Z,1016.15
2018-04-02T05:35:17.102Z,1016.14
2018-04-02T05:36:17.100Z,1016.15
2018-04-02T05:37:17.101Z,1016.1
2018-04-02T05:38:17.106Z,1016.15
2018-04-02T05:39:17.103Z,1016.12
2018-04-02T05:40:17.111Z,1016.12
2018-04-02T05:41:17.361Z,1016.12
2018-04-02T05:42:17.101Z,1016.16
2018-04-02T05:43:17.111Z,1016.17
2018-04-02T05:44:17.116Z,1016.16
2018-04-02T05:45:17.198Z,1016.16
2018-04-02T05:46:17.126Z,1016.14
2018-04-02T05:47:17.108Z,1016.17
2018-04-02T05:48:17.104Z,1016.18
2018-04-02T05:49:17.111Z,1016.17
2018-04-02T05:50:17.118Z,1016.17
2018-04-02T05:51:17.140Z,1016.16
2018-04-02T05:52:17.107Z,1016.17
2018-04-02T05:53:17.125Z,1016.13
2018-04-02T05:54:17.120Z,1016.16
2018-04-02T05:55:17.117Z,1016.18
2018-04-02T05:56:17.160Z,1016.19
2018-04-02T05:57:17.129Z,1016.17
2018-04-02T05:58:17.149Z,1016.16
2018-04-02T05:59:17.114Z,1016.14
2018-04-02T06:00:17.162Z,1016.12
2018-04-02T06:01:17.530Z,1016.16
2018-04-02T06:02:17.771Z,1016.09
2018-04-02T06:03:17.168Z,1016.13
2018-04-02T06:04:17.176Z,1016.1
2018-04-02T06:05:17.113Z,1016.13
2018-04-02T06:06:17.163Z,1016.11
2018-04-02T06:07:17.140Z,1016.09
2018-04-02T06:08:17.138Z,1016.09
2018-04-02T06:09:17.117Z,1016.1
2018-04-02T06:10:17.126Z,1016.09
2018-04-02T06:11:17.127Z,1016.1
2018-04-02T06:12:17.136Z,1016.1
2018-04-02T06:13:17.109Z,1016.14
2018-04-02T06:14:17.117Z,1016.17
2018-04-02T06:15:24.233Z,1016.17
2018-04-02T06:16:17.132Z,1016.12
2018-04-02T06:17:17.130Z,1016.08
2018-04-02T06:18:17.151Z,1016.14
2018-04-02T06:19:17.150Z,1016.09
2018-04-02T06:20:17.117Z,1016.13
2018-04-02T06:21:17.123Z,1016.05
2018-04-02T06:22:17.129Z,1016.06
2018-04-02T06:23:17.135Z,1016.05
2018-04-02T06:24:17.143Z,1016.06
2018-04-02T06:25:17.154Z,1016.06
2018-04-02T06:26:17.134Z,1016.08
2018-04-02T06:27:17.132Z,1016.07
2018-04-02T06:28:17.143Z,1016.06
2018-04-02T06:29:17.144Z,1016.06
2018-04-02T06:30:17.153Z,1016.04
2018-04-02T06:31:17.140Z,1016.06
2018-04-02T06:32:17.211Z,1016
2018-04-02T06:33:17.117Z,1016
2018-04-02T06:34:17.123Z,1016.01
2018-04-02T06:35:17.122Z,1016.05
2018-04-02T06:36:17.118Z,1016.03
2018-04-02T06:37:17.126Z,1016.05
2018-04-02T06:38:17.115Z,1016
2018-04-02T06:39:17.124Z,1016.01
2018-04-02T06:40:17.131Z,1016.02
2018-04-02T06:41:17.127Z,1016
2018-04-02T06:42:17.136Z,1015.97
2018-04-02T06:43:17.116Z,1015.99
2018-04-02T06:44:17.123Z,1015.99
2018-04-02T06:45:17.116Z,1015.98
2018-04-02T06:46:17.112Z,1015.94
2018-04-02T06:47:17.118Z,1015.94
2018-04-02T06:48:17.121Z,1015.96
2018-04-02T06:49:17.157Z,1015.97
2018-04-02T06:50:17.125Z,1015.96
2018-04-02T06:51:17.124Z,1015.94
2018-04-02T06:52:17.125Z,1015.92
2018-04-02T06:53:17.119Z,1015.94
2018-04-02T06:54:17.145Z,1015.97
2018-04-02T06:55:17.155Z,1015.91
2018-04-02T06:56:17.120Z,1015.92
2018-04-02T06:57:17.118Z,1015.87
2018-04-02T06:58:17.122Z,1015.91
2018-04-02T06:59:17.148Z,1015.92
2018-04-02T07:00:17.123Z,1015.89
2018-04-02T07:01:17.119Z,1015.87
2018-04-02T07:02:17.128Z,1015.91
2018-04-02T07:03:17.219Z,1015.89
2018-04-02T07:04:17.133Z,1015.88
2018-04-02T07:05:17.123Z,1015.89
2018-04-02T07:06:17.128Z,1015.9
2018-04-02T07:07:17.123Z,1015.94
2018-04-02T07:08:17.137Z,1015.91
2018-04-02T07:09:17.119Z,1015.92
2018-04-02T07:10:17.125Z,1015.92
2018-04-02T07:11:17.131Z,1015.89
2018-04-02T07:12:17.127Z,1015.88
2018-04-02T07:13:17.136Z,1015.86
2018-04-02T07:14:17.124Z,1015.82
2018-04-02T07:15:17.133Z,1015.85
2018-04-02T07:16:17.471Z,1015.83
2018-04-02T07:17:17.130Z,1015.81
2018-04-02T07:18:17.133Z,1015.79
2018-04-02T07:19:17.132Z,1015.8
2018-04-02T07:20:17.133Z,1015.79
2018-04-02T07:21:17.155Z,1015.71
2018-04-02T07:22:17.132Z,1015.67
2018-04-02T07:23:17.154Z,1015.66
2018-04-02T07:24:17.146Z,1015.59
2018-04-02T07:25:17.127Z,1015.61
2018-04-02T07:26:17.139Z,1015.58
2018-04-02T07:27:17.141Z,1015.6
2018-04-02T07:28:17.149Z,1015.61
2018-04-02T07:29:17.128Z,1015.65
2018-04-02T07:30:17.134Z,1015.64
2018-04-02T07:31:17.215Z,1015.64
2018-04-02T07:32:17.126Z,1015.61
2018-04-02T07:33:17.160Z,1015.64
2018-04-02T07:34:17.330Z,1015.62
2018-04-02T07:35:17.132Z,1015.63
2018-04-02T07:36:17.152Z,1015.63
2018-04-02T07:37:17.186Z,1015.65
2018-04-02T07:38:17.130Z,1015.67
2018-04-02T07:39:17.147Z,1015.65
2018-04-02T07:40:17.127Z,1015.63
2018-04-02T07:41:17.150Z,1015.62
2018-04-02T07:42:17.131Z,1015.6
2018-04-02T07:43:17.138Z,1015.58
2018-04-02T07:44:17.241Z,1015.61
2018-04-02T07:45:17.137Z,1015.63
2018-04-02T07:46:17.140Z,1015.61
2018-04-02T07:47:17.138Z,1015.65
2018-04-02T07:48:17.149Z,1015.6
2018-04-02T07:49:17.141Z,1015.6
2018-04-02T07:50:17.166Z,1015.53
2018-04-02T07:51:17.143Z,1015.53
2018-04-02T07:52:17.132Z,1015.5
2018-04-02T07:53:17.140Z,1015.53
2018-04-02T07:54:17.148Z,1015.49
2018-04-02T07:55:17.166Z,1015.51
2018-04-02T07:56:17.152Z,1015.52
2018-04-02T07:57:17.143Z,1015.51
2018-04-02T07:58:17.136Z,1015.46
2018-04-02T07:59:17.132Z,1015.48
2018-04-02T08:00:17.142Z,1015.47
2018-04-02T08:01:17.135Z,1015.46
2018-04-02T08:02:17.145Z,1015.43
2018-04-02T08:03:17.139Z,1015.39
2018-04-02T08:04:17.239Z,1015.4
2018-04-02T08:05:17.233Z,1015.39
2018-04-02T08:06:17.154Z,1015.33
2018-04-02T08:07:17.136Z,1015.35
2018-04-02T08:08:17.150Z,1015.36
2018-04-02T08:09:17.149Z,1015.4
2018-04-02T08:10:17.143Z,1015.37
2018-04-02T08:11:17.141Z,1015.37
2018-04-02T08:12:17.147Z,1015.34
2018-04-02T08:13:17.138Z,1015.32
2018-04-02T08:14:17.137Z,1015.32
2018-04-02T08:15:17.142Z,1015.23
2018-04-02T08:16:17.151Z,1015.21
2018-04-02T08:17:17.171Z,1015.22
2018-04-02T08:18:17.142Z,1015.21
2018-04-02T08:19:17.150Z,1015.19
2018-04-02T08:20:17.145Z,1015.21
2018-04-02T08:21:17.269Z,1015.22
2018-04-02T08:22:17.169Z,1015.22
2018-04-02T08:23:17.147Z,1015.2
2018-04-02T08:24:17.146Z,1015.19
2018-04-02T08:25:17.194Z,1015.21
2018-04-02T08:26:17.176Z,1015.16
2018-04-02T08:27:17.183Z,1015.13
2018-04-02T08:28:17.220Z,1015.13
2018-04-02T08:29:17.164Z,1015.15
2018-04-02T08:30:17.153Z,1015.15
2018-04-02T08:31:17.148Z,1015.14
2018-04-02T08:32:17.151Z,1015.1
2018-04-02T08:33:17.152Z,1015.1
2018-04-02T08:34:17.147Z,1015.1
2018-04-02T08:35:17.156Z,1015.11
2018-04-02T08:36:17.229Z,1015.07
2018-04-02T08:37:17.157Z,1015.06
2018-04-02T08:38:17.142Z,1015.01
2018-04-02T08:39:17.529Z,1014.98
2018-04-02T08:40:17.169Z,1014.99
2018-04-02T08:41:17.161Z,1014.98
2018-04-02T08:42:17.157Z,1014.93
2018-04-02T08:43:17.143Z,1014.93
2018-04-02T08:44:17.294Z,1014.89
2018-04-02T08:45:17.145Z,1014.88
2018-04-02T08:46:17.153Z,1014.84
2018-04-02T08:47:17.172Z,1014.82
2018-04-02T08:48:17.158Z,1014.8
2018-04-02T08:49:17.181Z,1014.82
2018-04-02T08:50:17.152Z,1014.84
2018-04-02T08:51:17.165Z,1014.87
2018-04-02T08:52:17.144Z,1014.81
2018-04-02T08:53:17.150Z,1014.86
2018-04-02T08:54:17.199Z,1014.82
2018-04-02T08:55:17.161Z,1014.85
2018-04-02T08:56:17.172Z,1014.82
2018-04-02T08:57:17.339Z,1014.8
2018-04-02T08:58:17.182Z,1014.79
2018-04-02T08:59:17.186Z,1014.74
2018-04-02T09:00:17.259Z,1014.72
2018-04-02T09:01:17.171Z,1014.72
2018-04-02T09:02:17.177Z,1014.68
2018-04-02T09:03:17.191Z,1014.65
2018-04-02T09:04:17.155Z,1014.64
2018-04-02T09:05:17.164Z,1014.6
2018-04-02T09:06:17.165Z,1014.62
2018-04-02T09:07:17.211Z,1014.64
2018-04-02T09:08:17.160Z,1014.65
2018-04-02T09:09:17.154Z,1014.61
2018-04-02T09:10:17.163Z,1014.64
2018-04-02T09:11:17.195Z,1014.6
2018-04-02T09:12:17.194Z,1014.56
2018-04-02T09:13:17.194Z,1014.59
2018-04-02T09:14:17.242Z,1014.58
2018-04-02T09:15:17.180Z,1014.6
2018-04-02T09:16:17.201Z,1014.53
2018-04-02T09:17:17.167Z,1014.59
2018-04-02T09:18:17.201Z,1014.54
2018-04-02T09:19:17.157Z,1014.54
2018-04-02T09:20:17.513Z,1014.53
2018-04-02T09:21:17.172Z,1014.52
2018-04-02T09:22:17.160Z,1014.5
2018-04-02T09:23:17.181Z,1014.53
2018-04-02T09:24:17.203Z,1014.5
2018-04-02T09:25:17.223Z,1014.49
2018-04-02T09:26:18.636Z,1014.5
2018-04-02T09:27:17.177Z,1014.43
2018-04-02T09:28:17.175Z,1014.45
2018-04-02T09:29:17.180Z,1014.44
2018-04-02T09:30:17.165Z,1014.41
2018-04-02T09:31:17.204Z,1014.36
2018-04-02T09:32:17.176Z,1014.38
2018-04-02T09:33:17.181Z,1014.31
2018-04-02T09:34:17.161Z,1014.31
2018-04-02T09:35:17.160Z,1014.27
2018-04-02T09:36:17.170Z,1014.29
2018-04-02T09:37:17.167Z,1014.22
2018-04-02T09:38:17.228Z,1014.24
2018-04-02T09:39:17.201Z,1014.17
2018-04-02T09:40:17.194Z,1014.16
2018-04-02T09:41:17.178Z,1014.17
2018-04-02T09:42:17.205Z,1014.14
2018-04-02T09:43:17.173Z,1014.16
2018-04-02T09:44:17.184Z,1014.17
2018-04-02T09:45:17.172Z,1014.14
2018-04-02T09:46:17.209Z,1014.12
2018-04-02T09:47:17.198Z,1014.14
2018-04-02T09:48:17.163Z,1014.12
2018-04-02T09:49:17.166Z,1014.06
2018-04-02T09:50:17.162Z,1014.03
2018-04-02T09:51:17.168Z,1014.03
2018-04-02T09:52:17.189Z,1014.04
2018-04-02T09:53:17.232Z,1014.06
2018-04-02T09:54:17.339Z,1014.06
2018-04-02T09:55:17.187Z,1014.03
2018-04-02T09:56:17.218Z,1014.05
2018-04-02T09:57:17.211Z,1014.07
2018-04-02T09:58:17.200Z,1014
2018-04-02T09:59:17.390Z,1014.01
2018-04-02T10:00:17.193Z,1013.95
2018-04-02T10:01:17.167Z,1013.94
2018-04-02T10:02:17.174Z,1013.95
2018-04-02T10:03:17.182Z,1013.92
2018-04-02T10:04:17.177Z,1013.92
2018-04-02T10:05:17.286Z,1013.91
2018-04-02T10:06:17.196Z,1013.87
2018-04-02T10:07:17.237Z,1013.86
2018-04-02T10:08:17.231Z,1013.83
2018-04-02T10:09:18.242Z,1013.81
2018-04-02T10:10:18.433Z,1013.8
2018-04-02T10:11:18.570Z,1013.74
2018-04-02T10:12:17.326Z,1013.75
2018-04-02T10:13:17.199Z,1013.73
2018-04-02T10:14:17.186Z,1013.72
2018-04-02T10:15:17.186Z,1013.63
2018-04-02T10:16:17.184Z,1013.6
2018-04-02T10:17:17.203Z,1013.6
2018-04-02T10:18:17.179Z,1013.53
2018-04-02T10:19:17.188Z,1013.56
2018-04-02T10:20:17.195Z,1013.46
2018-04-02T10:21:17.192Z,1013.39
2018-04-02T10:22:17.177Z,1013.35
2018-04-02T10:23:17.181Z,1013.4
2018-04-02T10:24:17.216Z,1013.38
2018-04-02T10:25:17.179Z,1013.42
2018-04-02T10:26:17.252Z,1013.38
2018-04-02T10:27:17.180Z,1013.36
2018-04-02T10:28:17.190Z,1013.34
2018-04-02T10:29:17.264Z,1013.28
2018-04-02T10:30:17.190Z,1013.21
2018-04-02T10:31:17.194Z,1013.2
2018-04-02T10:32:17.218Z,1013.12
2018-04-02T10:33:17.188Z,1013.11
2018-04-02T10:34:17.183Z,1013.12
2018-04-02T10:35:17.200Z,1013.14
2018-04-02T10:36:17.197Z,1013.12
2018-04-02T10:37:17.262Z,1013.12
2018-04-02T10:38:17.188Z,1013.15
2018-04-02T10:39:17.193Z,1013.17
2018-04-02T10:40:17.197Z,1013.18
2018-04-02T10:41:17.202Z,1013.13
2018-04-02T10:42:17.192Z,1013.14
2018-04-02T10:43:17.402Z,1013.12
2018-04-02T10:44:17.216Z,1013.13
2018-04-02T10:45:17.201Z,1013.15
2018-04-02T10:46:17.209Z,1013.09
2018-04-02T10:47:17.204Z,1013.12
2018-04-02T10:48:17.244Z,1013.07
2018-04-02T10:49:17.192Z,1013.05
2018-04-02T10:50:17.195Z,1013.01
2018-04-02T10:51:17.196Z,1012.95
2018-04-02T10:52:17.193Z,1012.96
2018-04-02T10:53:17.221Z,1012.91
2018-04-02T10:54:17.204Z,1012.92
2018-04-02T10:55:17.215Z,1012.85
2018-04-02T10:56:17.194Z,1012.88
2018-04-02T10:57:17.207Z,1012.83
2018-04-02T10:58:17.220Z,1012.81
2018-04-02T10:59:17.219Z,1012.83
2018-04-02T11:00:17.252Z,1012.77
2018-04-02T11:01:17.203Z,1012.74
2018-04-02T11:02:17.197Z,1012.7
2018-04-02T11:03:17.506Z,1012.69
2018-04-02T11:04:17.202Z,1012.69
2018-04-02T11:05:17.203Z,1012.66
2018-04-02T11:06:17.290Z,1012.69
2018-04-02T11:07:17.216Z,1012.67
2018-04-02T11:08:17.224Z,1012.62
2018-04-02T11:09:17.210Z,1012.58
2018-04-02T11:10:17.224Z,1012.53
2018-04-02T11:11:17.203Z,1012.44
2018-04-02T11:12:17.201Z,1012.42
2018-04-02T11:13:17.201Z,1012.32
2018-04-02T11:14:17.272Z,1012.32
2018-04-02T11:15:17.211Z,1012.29
2018-04-02T11:16:17.227Z,1012.31
2018-04-02T11:17:17.203Z,1012.32
2018-04-02T11:18:17.227Z,1012.32
2018-04-02T11:19:17.205Z,1012.31
2018-04-02T11:20:17.203Z,1012.26
2018-04-02T11:21:17.207Z,1012.28
2018-04-02T11:22:17.214Z,1012.26
2018-04-02T11:23:17.204Z,1012.27
2018-04-02T11:24:17.203Z,1012.21
2018-04-02T11:25:17.206Z,1012.18
2018-04-02T11:26:17.209Z,1012.22
2018-04-02T11:27:17.218Z,1012.28
2018-04-02T11:28:17.205Z,1012.18
2018-04-02T11:29:17.207Z,1012.15
2018-04-02T11:30:17.208Z,1012.16
2018-04-02T11:31:17.227Z,1012.11
2018-04-02T11:32:17.214Z,1012.09
2018-04-02T11:33:17.214Z,1012.1
2018-04-02T11:34:17.221Z,1012.1
2018-04-02T11:35:17.221Z,1012.09
2018-04-02T11:36:17.218Z,1012.1
2018-04-02T11:37:17.277Z,1012.1
2018-04-02T11:38:17.217Z,1012.08
2018-04-02T11:39:17.216Z,1012.1
2018-04-02T11:40:17.224Z,1012.05
2018-04-02T11:41:17.215Z,1012
2018-04-02T11:42:17.234Z,1011.94
2018-04-02T11:43:17.218Z,1011.94
2018-04-02T11:44:17.213Z,1011.9
2018-04-02T11:45:17.291Z,1011.87
2018-04-02T11:46:17.214Z,1011.9
2018-04-02T11:47:17.255Z,1011.83
2018-04-02T11:48:17.227Z,1011.85
2018-04-02T11:49:17.222Z,1011.8
2018-04-02T11:50:17.223Z,1011.84
2018-04-02T11:51:17.227Z,1011.83
2018-04-02T11:52:17.245Z,1011.8
2018-04-02T11:53:17.234Z,1011.79
2018-04-02T11:54:17.245Z,1011.77
2018-04-02T11:55:17.228Z,1011.74
2018-04-02T11:56:17.225Z,1011.76
2018-04-02T11:57:17.463Z,1011.73
2018-04-02T11:58:17.223Z,1011.7
2018-04-02T11:59:17.239Z,1011.64
2018-04-02T12:00:17.231Z,1011.63
2018-04-02T12:01:17.266Z,1011.56
2018-04-02T12:02:17.255Z,1011.53
2018-04-02T12:03:17.236Z,1011.53
2018-04-02T12:04:17.242Z,1011.48
2018-04-02T12:05:17.247Z,1011.48
2018-04-02T12:06:17.235Z,1011.45
2018-04-02T12:07:17.521Z,1011.46
2018-04-02T12:08:17.256Z,1011.42